オウル の空港の天気 - METARとTAF

オウル空港 ( EFOU / OUL ) - フィンランド Oulunsalo
飛行場実況気象(Metar)
観測時間01/23 05:50 EET (01/23 03:50 UTC)
風向・風速西北西 2m/s
視程10km以上
天気現象弱い雪
少しの雲 雲底高度 3050m
気温-21℃
湿度84%
気圧1013hPa
METAREFOU 230350Z AUTO 30004KT 9999 -SN FEW100/// M21/M23 Q1013
過去の天気等 Google飛行場航空写真 Wunderground天気予報

過去48時間のMETAR

飛行場予報(TAF)
発表時間: 1/23 04:26 EET (1/23 02:26 UTC)
予報対象時間: 23日5時 EET ~ 24日5時 EET
風向・風速北西 3m/s
視程10km以上
なし
23日5時 EET ~ 23日8時 EET に一時的に
視程7,000m
天気現象弱い雪
23日14時 EET ~ 23日24時 EET に一時的に
視程7,000m
天気現象弱い雪
全天の8割程度の雲 雲底高度 370m
24日0時 EET ~ 24日2時 EET に徐々に
風向・風速南南東 5m/s
24日2時 EET ~ 24日4時 EET に徐々に
視程3,000m
天気現象弱い雪
TAF EFOU 230226Z 2303/2403 32005KT CAVOK
TEMPO 2303/2306 7000 -SN
TEMPO 2312/2322 7000 -SN BKN012
BECMG 2322/2324 15010KT
BECMG 2400/2402 3000 -SN